createdAt,value
2023-01-15T00:03:10.997Z,1.85
2023-01-15T00:08:12.593Z,1.63
2023-01-15T00:13:14.203Z,1.50
2023-01-15T00:18:15.796Z,1.70
2023-01-15T00:23:37.339Z,1.55
2023-01-15T00:28:38.939Z,1.42
2023-01-15T00:33:40.526Z,1.52
2023-01-15T00:38:42.117Z,1.40
2023-01-15T00:43:43.780Z,1.50
2023-01-15T00:48:45.477Z,2.22
2023-01-15T00:53:47.083Z,1.70
2023-01-15T00:58:48.720Z,1.60
2023-01-15T01:03:52.914Z,1.73
2023-01-15T01:08:57.526Z,1.75
2023-01-15T01:13:59.151Z,1.60
2023-01-15T01:19:03.630Z,1.73
2023-01-15T01:24:06.756Z,1.67
2023-01-15T01:29:08.512Z,1.65
2023-01-15T01:34:11.456Z,1.58
2023-01-15T01:39:16.363Z,1.58
2023-01-15T01:44:33.407Z,1.58
2023-01-15T01:49:38.493Z,1.40
2023-01-15T01:54:41.043Z,1.63
2023-01-15T01:59:43.928Z,1.60
2023-01-15T02:04:45.998Z,1.60
2023-01-15T02:09:47.640Z,1.50
2023-01-15T02:15:01.190Z,1.60
2023-01-15T02:20:16.442Z,1.52
2023-01-15T02:25:36.469Z,1.60
2023-01-15T02:30:47.547Z,1.60
2023-01-15T02:36:01.100Z,1.60
2023-01-15T02:41:16.285Z,1.65
2023-01-15T02:46:23.617Z,1.50
2023-01-15T02:51:30.016Z,1.70
2023-01-15T02:56:36.013Z,1.83
2023-01-15T03:01:56.507Z,1.80
2023-01-15T03:07:17.568Z,1.50
2023-01-15T03:12:57.494Z,1.80
2023-01-15T03:18:02.740Z,1.73
2023-01-15T03:23:11.349Z,1.67
2023-01-15T03:28:16.559Z,1.70
2023-01-15T03:33:19.126Z,1.70
2023-01-15T03:38:24.581Z,1.60
2023-01-15T03:43:50.757Z,1.67
2023-01-15T03:49:12.339Z,1.38
2023-01-15T03:54:43.478Z,1.77
2023-01-15T03:59:53.030Z,1.55
2023-01-15T04:04:57.105Z,1.60
2023-01-15T04:09:59.679Z,1.60
2023-01-15T04:15:01.569Z,1.60
2023-01-15T04:20:06.309Z,1.58
2023-01-15T04:25:08.572Z,1.50
2023-01-15T04:30:10.940Z,1.80
2023-01-15T04:35:12.525Z,1.50
2023-01-15T04:40:34.345Z,1.40
2023-01-15T04:45:35.901Z,1.52
2023-01-15T04:50:40.286Z,1.40
2023-01-15T04:55:42.009Z,1.35
2023-01-15T05:00:43.580Z,1.42
2023-01-15T05:05:45.173Z,1.38
2023-01-15T05:10:46.840Z,1.30
2023-01-15T05:15:48.529Z,1.20
2023-01-15T05:20:51.379Z,1.30
2023-01-15T05:25:53.151Z,1.30
2023-01-15T05:30:54.717Z,1.33
2023-01-15T05:36:01.468Z,1.30
2023-01-15T05:41:27.879Z,1.30
2023-01-15T05:46:29.798Z,1.00
2023-01-15T05:51:31.513Z,1.23
2023-01-15T05:56:36.405Z,0.90
2023-01-15T06:01:38.884Z,0.90
2023-01-15T06:06:40.960Z,0.70
2023-01-15T06:11:42.553Z,0.80
2023-01-15T06:16:44.309Z,0.73
2023-01-15T06:21:46.089Z,1.00
2023-01-15T06:26:47.764Z,1.05
2023-01-15T06:31:49.677Z,0.85
2023-01-15T06:36:51.295Z,0.90
2023-01-15T06:42:11.600Z,0.80
2023-01-15T06:47:22.652Z,0.90
2023-01-15T06:52:26.246Z,1.10
2023-01-15T06:57:27.803Z,1.40
2023-01-15T07:02:29.384Z,1.20
2023-01-15T07:07:31.204Z,1.40
2023-01-15T07:12:35.178Z,1.40
2023-01-15T07:17:36.789Z,1.80
2023-01-15T07:22:38.404Z,1.58
2023-01-15T07:27:40.021Z,1.33
2023-01-15T07:32:42.082Z,1.33
2023-01-15T07:37:44.140Z,1.30
2023-01-15T07:43:04.406Z,1.70
2023-01-15T07:48:29.041Z,1.42
2023-01-15T07:53:30.702Z,1.60
2023-01-15T07:58:32.298Z,1.75
2023-01-15T08:03:33.949Z,1.50
2023-01-15T08:08:35.568Z,1.52
2023-01-15T08:13:55.734Z,1.40
2023-01-15T08:18:57.310Z,1.58
2023-01-15T08:23:58.891Z,1.25
2023-01-15T08:29:00.474Z,2.35
2023-01-15T08:34:02.074Z,1.70
2023-01-15T08:39:04.382Z,7.70
2023-01-15T08:44:06.048Z,4.72
2023-01-15T08:49:11.642Z,3.00
2023-01-15T08:54:13.540Z,2.88
2023-01-15T08:59:15.327Z,1.52
2023-01-15T09:04:19.983Z,1.60
2023-01-15T09:09:21.618Z,1.40
2023-01-15T09:14:56.341Z,1.65
2023-01-15T09:19:44.790Z,2.08
2023-01-15T09:24:47.177Z,2.22
2023-01-15T09:29:48.791Z,2.28
2023-01-15T09:34:50.421Z,1.55
2023-01-15T09:39:51.980Z,2.13
2023-01-15T09:45:12.500Z,1.80
2023-01-15T09:50:32.332Z,2.45
2023-01-15T09:55:41.188Z,1.50
2023-01-15T10:00:51.673Z,1.50
2023-01-15T10:06:11.987Z,1.45
2023-01-15T10:11:17.603Z,1.55
2023-01-15T10:16:22.564Z,1.50
2023-01-15T10:21:34.812Z,1.77
2023-01-15T10:26:43.199Z,1.40
2023-01-15T10:31:52.686Z,1.45
2023-01-15T10:37:10.979Z,1.77
2023-01-15T10:42:32.565Z,1.40
2023-01-15T10:47:37.580Z,2.00
2023-01-15T10:52:43.018Z,2.75
2023-01-15T10:58:09.020Z,2.55
2023-01-15T11:03:18.210Z,1.90
2023-01-15T11:09:06.360Z,1.50
2023-01-15T11:14:13.623Z,1.58
2023-01-15T11:19:39.705Z,1.77
2023-01-15T11:25:01.332Z,2.42
2023-01-15T11:30:05.363Z,1.80
2023-01-15T11:35:17.779Z,1.88
2023-01-15T11:40:23.402Z,1.40
2023-01-15T11:45:44.142Z,1.70
2023-01-15T11:51:01.108Z,1.38
2023-01-15T11:56:07.228Z,1.80
2023-01-15T12:01:09.394Z,2.60
2023-01-15T12:06:13.854Z,1.60
2023-01-15T12:11:33.696Z,2.10
2023-01-15T12:16:56.361Z,1.80
2023-01-15T12:22:06.482Z,1.70
2023-01-15T12:27:33.080Z,2.28
2023-01-15T12:32:39.517Z,1.95
2023-01-15T12:37:46.578Z,1.60
2023-01-15T12:43:11.224Z,2.00
2023-01-15T12:48:18.074Z,2.28
2023-01-15T12:53:41.581Z,2.50
2023-01-15T12:59:13.425Z,2.05
2023-01-15T13:04:22.949Z,2.10
2023-01-15T13:09:33.349Z,2.10
2023-01-15T13:14:35.518Z,2.10
2023-01-15T13:20:01.477Z,1.80
2023-01-15T13:25:26.784Z,2.20
2023-01-15T13:30:53.023Z,2.38
2023-01-15T13:36:05.265Z,2.15
2023-01-15T13:41:08.353Z,2.17
2023-01-15T13:46:19.964Z,2.20
2023-01-15T13:51:32.011Z,2.13
2023-01-15T13:56:36.152Z,2.03
2023-01-15T14:01:37.824Z,1.90
2023-01-15T14:06:41.367Z,2.15
2023-01-15T14:11:48.929Z,2.30
2023-01-15T14:17:11.049Z,2.10
2023-01-15T14:22:46.279Z,2.30
2023-01-15T14:28:13.400Z,2.83
2023-01-15T14:33:23.961Z,2.92
2023-01-15T14:38:27.875Z,2.13
2023-01-15T14:43:33.470Z,2.28
2023-01-15T14:48:39.292Z,2.53
2023-01-15T14:53:50.213Z,2.45
2023-01-15T14:59:30.778Z,2.95
2023-01-15T15:04:53.853Z,2.60
2023-01-15T15:10:01.445Z,2.70
2023-01-15T15:15:16.332Z,2.50
2023-01-15T15:20:26.984Z,2.60
2023-01-15T15:25:38.138Z,4.03
2023-01-15T15:30:44.939Z,2.65
2023-01-15T15:35:51.035Z,2.90
2023-01-15T15:40:56.763Z,2.42
2023-01-15T15:46:16.788Z,2.85
2023-01-15T15:51:30.686Z,2.50
2023-01-15T15:56:33.605Z,2.72
2023-01-15T16:01:39.196Z,2.25
2023-01-15T16:06:40.849Z,1.88
2023-01-15T16:11:42.772Z,2.55
2023-01-15T16:16:45.014Z,2.80
2023-01-15T16:21:47.180Z,2.60
2023-01-15T16:26:55.670Z,2.50
2023-01-15T16:31:59.738Z,2.92
2023-01-15T16:37:02.299Z,2.70
2023-01-15T16:42:04.142Z,2.58
2023-01-15T16:47:06.883Z,2.45
2023-01-15T16:52:36.320Z,2.55
2023-01-15T16:57:37.925Z,2.63
2023-01-15T17:02:46.538Z,2.83
2023-01-15T17:07:50.325Z,2.55
2023-01-15T17:12:52.607Z,2.65
2023-01-15T17:17:55.190Z,2.60
2023-01-15T17:22:56.887Z,2.50
2023-01-15T17:27:59.799Z,2.30
2023-01-15T17:33:03.144Z,2.30
2023-01-15T17:38:06.768Z,3.03
2023-01-15T17:43:12.465Z,3.28
2023-01-15T17:48:14.467Z,2.55
2023-01-15T17:53:17.018Z,2.72
2023-01-15T17:58:37.203Z,2.80
2023-01-15T18:04:02.258Z,2.70
2023-01-15T18:09:07.052Z,3.67
2023-01-15T18:14:08.952Z,3.30
2023-01-15T18:19:10.532Z,3.38
2023-01-15T18:24:12.664Z,2.60
2023-01-15T18:29:14.525Z,3.00
2023-01-15T18:34:16.149Z,2.85
2023-01-15T18:39:17.816Z,3.10
2023-01-15T18:44:40.456Z,9.13
2023-01-15T18:49:45.000Z,3.15
2023-01-15T18:54:46.673Z,3.20
2023-01-15T18:59:48.394Z,5.95
2023-01-15T19:04:50.309Z,3.10
2023-01-15T19:09:53.983Z,3.13
2023-01-15T19:15:14.265Z,3.70
2023-01-15T19:20:18.847Z,3.00
2023-01-15T19:25:23.111Z,3.17
2023-01-15T19:30:28.741Z,3.10
2023-01-15T19:35:30.581Z,2.97
2023-01-15T19:40:36.430Z,3.08
2023-01-15T19:45:59.806Z,3.08
2023-01-15T19:51:01.785Z,3.83
2023-01-15T19:56:03.919Z,3.03
2023-01-15T20:01:06.011Z,3.20
2023-01-15T20:06:08.544Z,2.50
2023-01-15T20:11:10.251Z,3.00
2023-01-15T20:16:19.726Z,3.08
2023-01-15T20:21:21.354Z,3.03
2023-01-15T20:26:26.272Z,2.97
2023-01-15T20:31:27.915Z,2.80
2023-01-15T20:36:33.995Z,2.80
2023-01-15T20:41:54.253Z,3.10
2023-01-15T20:46:56.124Z,4.55
2023-01-15T20:51:58.396Z,2.58
2023-01-15T20:57:00.075Z,2.35
2023-01-15T21:02:01.821Z,2.70
2023-01-15T21:07:03.869Z,2.70
2023-01-15T21:12:05.680Z,2.30
2023-01-15T21:17:07.298Z,2.88
2023-01-15T21:22:08.928Z,2.60
2023-01-15T21:27:10.551Z,2.50
2023-01-15T21:32:12.149Z,2.60
2023-01-15T21:37:15.505Z,2.55
2023-01-15T21:42:38.722Z,2.47
2023-01-15T21:47:41.524Z,1.90
2023-01-15T21:52:43.201Z,2.30
2023-01-15T21:57:44.812Z,2.42
2023-01-15T22:02:47.587Z,2.50
2023-01-15T22:07:49.236Z,2.88
2023-01-15T22:12:50.874Z,2.30
2023-01-15T22:17:53.835Z,2.58
2023-01-15T22:22:55.525Z,2.22
2023-01-15T22:27:58.086Z,2.70
2023-01-15T22:33:00.537Z,2.60
2023-01-15T22:38:02.574Z,2.70
2023-01-15T22:43:04.203Z,2.88
2023-01-15T22:48:06.021Z,2.50
2023-01-15T22:53:07.813Z,2.97
2023-01-15T22:58:09.384Z,2.78
2023-01-15T23:03:10.966Z,3.20
2023-01-15T23:08:12.543Z,2.95
2023-01-15T23:13:14.184Z,2.45
2023-01-15T23:18:15.782Z,2.80
2023-01-15T23:23:17.554Z,2.53
2023-01-15T23:28:19.146Z,3.10
2023-01-15T23:33:20.798Z,2.80
2023-01-15T23:38:22.588Z,2.58
2023-01-15T23:43:42.676Z,2.70
2023-01-15T23:48:44.385Z,3.20
2023-01-15T23:53:47.290Z,2.80
2023-01-15T23:58:48.932Z,2.70
